createdAt,value
2023-09-14T00:03:14.716Z,98389.97
2023-09-14T00:08:18.054Z,98377.06
2023-09-14T00:13:20.195Z,98382.38
2023-09-14T00:18:22.866Z,98385.66
2023-09-14T00:23:25.097Z,98389.97
2023-09-14T00:28:27.280Z,98383.41
2023-09-14T00:33:29.462Z,98378.59
2023-09-14T00:38:31.595Z,98385.16
2023-09-14T00:43:35.609Z,98385.41
2023-09-14T00:48:38.942Z,98384.16
2023-09-14T00:53:41.516Z,98388.94
2023-09-14T00:58:44.042Z,98389.97
2023-09-14T01:03:47.089Z,98392.25
2023-09-14T01:08:50.589Z,98387.16
2023-09-14T01:14:48.793Z,98383.41
2023-09-14T01:20:17.716Z,98387.16
2023-09-14T01:25:46.908Z,98393.25
2023-09-14T01:30:49.964Z,98384.63
2023-09-14T01:35:57.981Z,98391.97
2023-09-14T01:41:02.508Z,98392.94
2023-09-14T01:46:05.800Z,98392.44
2023-09-14T01:51:08.115Z,98403.31
2023-09-14T01:56:10.361Z,98398.25
2023-09-14T02:01:14.360Z,98396.75
2023-09-14T02:06:16.644Z,98408.09
2023-09-14T02:11:18.830Z,98400.50
2023-09-14T02:16:21.047Z,98409.66
2023-09-14T02:21:23.249Z,98406.34
2023-09-14T02:26:25.431Z,98408.31
2023-09-14T02:31:27.856Z,98406.25
2023-09-14T02:36:30.117Z,98410.28
2023-09-14T02:41:33.741Z,98409.19
2023-09-14T02:46:35.969Z,98411.03
2023-09-14T02:51:38.154Z,98408.75
2023-09-14T02:56:41.689Z,98409.63
2023-09-14T03:01:50.979Z,98408.38
2023-09-14T03:06:55.868Z,98411.91
2023-09-14T03:11:58.421Z,98415.41
2023-09-14T03:17:00.767Z,98426.91
2023-09-14T03:22:04.048Z,98425.97
2023-09-14T03:27:06.636Z,98430.31
2023-09-14T03:32:09.501Z,98426.94
2023-09-14T03:37:12.120Z,98438.09
2023-09-14T03:42:14.420Z,98441.19
2023-09-14T03:47:17.364Z,98434.91
2023-09-14T03:52:19.526Z,98433.19
2023-09-14T03:57:22.375Z,98435.38
2023-09-14T04:02:25.606Z,98433.09
2023-09-14T04:07:27.799Z,98433.69
2023-09-14T04:12:29.946Z,98440.41
2023-09-14T04:17:32.216Z,98443.34
2023-09-14T04:22:35.589Z,98451.72
2023-09-14T04:27:37.874Z,98459.69
2023-09-14T04:32:40.359Z,98457.28
2023-09-14T04:37:42.707Z,98457.38
2023-09-14T04:42:45.008Z,98461.19
2023-09-14T04:47:47.671Z,98463.91
2023-09-14T04:52:50.578Z,98474.22
2023-09-14T04:57:53.450Z,98467.25
2023-09-14T05:02:56.610Z,98464.19
2023-09-14T05:08:00.047Z,98474.25
2023-09-14T05:13:03.969Z,98468.03
2023-09-14T05:18:07.992Z,98466.81
2023-09-14T05:23:10.557Z,98469.47
2023-09-14T05:28:13.964Z,98471.38
2023-09-14T05:33:16.570Z,98474.53
2023-09-14T05:38:18.889Z,98477.81
2023-09-14T05:43:21.234Z,98482.63
2023-09-14T05:48:24.880Z,98481.81
2023-09-14T05:53:27.039Z,98490.22
2023-09-14T05:58:29.292Z,98486.00
2023-09-14T06:03:31.771Z,98482.75
2023-09-14T06:08:34.909Z,98494.63
2023-09-14T06:13:37.174Z,98489.38
2023-09-14T06:18:39.315Z,98491.66
2023-09-14T06:23:41.765Z,98510.00
2023-09-14T06:28:44.475Z,98503.28
2023-09-14T06:33:47.048Z,98494.59
2023-09-14T06:38:49.961Z,98513.84
2023-09-14T06:43:52.162Z,98507.56
2023-09-14T06:48:54.328Z,98501.78
2023-09-14T06:53:56.544Z,98503.28
2023-09-14T06:58:58.843Z,98512.59
2023-09-14T07:04:01.779Z,98509.44
2023-09-14T07:09:05.825Z,98502.63
2023-09-14T07:14:08.102Z,98511.59
2023-09-14T07:19:10.544Z,98512.69
2023-09-14T07:24:13.297Z,98512.72
2023-09-14T07:29:15.472Z,98522.94
2023-09-14T07:34:18.071Z,98518.72
2023-09-14T07:39:21.933Z,98522.50
2023-09-14T07:44:24.813Z,98527.06
2023-09-14T07:49:27.052Z,98535.41
2023-09-14T07:54:29.325Z,98539.56
2023-09-14T07:59:31.525Z,98542.69
2023-09-14T08:04:33.996Z,98543.69
2023-09-14T08:09:36.200Z,98538.81
2023-09-14T08:14:38.738Z,98548.47
2023-09-14T08:19:41.077Z,98560.66
2023-09-14T08:24:43.281Z,98545.75
2023-09-14T08:29:46.633Z,98553.78
2023-09-14T08:34:48.933Z,98555.56
2023-09-14T08:39:53.057Z,98561.41
2023-09-14T08:44:56.549Z,98569.69
2023-09-14T08:50:01.693Z,98572.16
2023-09-14T08:55:04.895Z,98565.13
2023-09-14T09:00:16.539Z,98567.44
2023-09-14T09:05:20.841Z,98556.97
2023-09-14T09:10:29.957Z,98571.72
2023-09-14T09:15:36.368Z,98558.94
2023-09-14T09:20:47.380Z,98562.03
2023-09-14T09:25:54.472Z,98557.22
2023-09-14T09:30:56.800Z,98550.34
2023-09-14T09:36:01.933Z,98544.47
2023-09-14T09:41:12.950Z,98567.56
2023-09-14T09:46:18.749Z,98556.91
2023-09-14T09:51:25.924Z,98556.50
2023-09-14T09:56:28.255Z,98556.16
2023-09-14T10:01:31.720Z,98553.06
2023-09-14T10:06:34.483Z,98550.44
2023-09-14T10:11:38.193Z,98549.22
2023-09-14T10:16:45.821Z,98549.94
2023-09-14T10:21:53.875Z,98545.69
2023-09-14T10:26:57.654Z,98548.94
2023-09-14T10:32:02.253Z,98543.00
2023-09-14T10:37:05.968Z,98541.72
2023-09-14T10:42:08.170Z,98530.88
2023-09-14T10:47:14.763Z,98536.25
2023-09-14T10:52:26.291Z,98535.00
2023-09-14T10:57:30.953Z,98527.59
2023-09-14T11:02:49.641Z,98513.75
2023-09-14T11:08:02.769Z,98519.41
2023-09-14T11:13:20.917Z,98502.00
2023-09-14T11:18:59.364Z,98500.13
2023-09-14T11:24:09.180Z,98499.50
2023-09-14T11:29:13.546Z,98493.75
2023-09-14T11:34:19.578Z,98487.59
2023-09-14T11:39:25.572Z,98483.31
2023-09-14T11:44:45.039Z,98480.88
2023-09-14T11:49:51.373Z,98471.22
2023-09-14T11:54:54.342Z,98470.28
2023-09-14T11:59:56.928Z,98474.72
2023-09-14T12:04:59.628Z,98459.09
2023-09-14T12:10:03.286Z,98460.56
2023-09-14T12:15:06.340Z,98459.47
2023-09-14T12:20:12.944Z,98461.34
2023-09-14T12:25:18.238Z,98447.13
2023-09-14T12:30:21.139Z,98449.53
2023-09-14T12:35:25.852Z,98443.94
2023-09-14T12:40:28.850Z,98445.41
2023-09-14T12:45:36.612Z,98452.63
2023-09-14T12:50:39.589Z,98432.19
2023-09-14T12:55:46.144Z,98430.44
2023-09-14T13:00:50.639Z,98416.03
2023-09-14T13:05:59.631Z,98412.81
2023-09-14T13:11:06.567Z,98404.59
2023-09-14T13:16:09.157Z,98405.28
2023-09-14T13:21:11.869Z,98403.28
2023-09-14T13:26:14.479Z,98389.19
2023-09-14T13:31:17.264Z,98387.84
2023-09-14T13:36:20.060Z,98390.28
2023-09-14T13:41:22.617Z,98382.34
2023-09-14T13:46:25.199Z,98378.56
2023-09-14T13:51:27.811Z,98380.13
2023-09-14T13:56:30.355Z,98373.22
2023-09-14T14:01:33.665Z,98366.63
2023-09-14T14:06:36.600Z,98366.25
2023-09-14T14:11:39.277Z,98360.94
2023-09-14T14:16:44.035Z,98361.88
2023-09-14T14:21:46.874Z,98359.75
2023-09-14T14:26:52.726Z,98351.00
2023-09-14T14:31:55.324Z,98345.84
2023-09-14T14:36:58.566Z,98345.06
2023-09-14T14:42:01.221Z,98346.38
2023-09-14T14:47:03.902Z,98346.13
2023-09-14T14:52:06.697Z,98340.09
2023-09-14T14:57:09.401Z,98344.94
2023-09-14T15:02:12.016Z,98344.63
2023-09-14T15:07:15.304Z,98343.84
2023-09-14T15:12:17.913Z,98333.47
2023-09-14T15:17:20.599Z,98341.16
2023-09-14T15:22:23.172Z,98339.13
2023-09-14T15:27:25.834Z,98335.41
2023-09-14T15:32:28.580Z,98337.16
2023-09-14T15:37:31.064Z,98330.81
2023-09-14T15:42:34.281Z,98330.06
2023-09-14T15:47:36.951Z,98324.03
2023-09-14T15:52:42.302Z,98319.16
2023-09-14T15:57:45.892Z,98322.00
2023-09-14T16:02:48.595Z,98322.47
2023-09-14T16:08:05.587Z,98324.50
2023-09-14T16:13:10.949Z,98323.72
2023-09-14T16:18:14.025Z,98326.56
2023-09-14T16:23:16.929Z,98317.22
2023-09-14T16:28:19.479Z,98320.19
2023-09-14T16:33:22.082Z,98340.41
2023-09-14T16:38:25.073Z,98341.06
2023-09-14T16:43:28.193Z,98331.06
2023-09-14T16:48:37.372Z,98337.50
2023-09-14T16:53:40.007Z,98337.06
2023-09-14T16:58:42.607Z,98344.53
2023-09-14T17:03:45.143Z,98341.69
2023-09-14T17:08:48.399Z,98340.66
2023-09-14T17:13:51.167Z,98345.97
2023-09-14T17:18:54.036Z,98347.50
2023-09-14T17:24:46.036Z,98339.72
2023-09-14T17:29:48.636Z,98338.97
2023-09-14T17:34:51.315Z,98338.00
2023-09-14T17:39:54.193Z,98338.78
2023-09-14T17:44:56.872Z,98341.66
2023-09-14T17:49:59.955Z,98345.84
2023-09-14T17:55:02.512Z,98345.34
2023-09-14T18:00:14.370Z,98350.66
2023-09-14T18:05:17.256Z,98351.25
2023-09-14T18:10:20.305Z,98360.84
2023-09-14T18:15:22.863Z,98364.84
2023-09-14T18:20:25.513Z,98360.38
2023-09-14T18:25:28.254Z,98358.88
2023-09-14T18:30:30.936Z,98375.31
2023-09-14T18:35:33.626Z,98380.34
2023-09-14T18:40:36.198Z,98384.44
2023-09-14T18:45:38.797Z,98375.56
2023-09-14T18:50:41.357Z,98377.81
2023-09-14T18:55:49.289Z,98372.53
2023-09-14T19:00:52.370Z,98379.38
2023-09-14T19:05:56.676Z,98377.56
2023-09-14T19:10:59.239Z,98388.72
2023-09-14T19:16:01.986Z,98387.94
2023-09-14T19:21:04.637Z,98387.44
2023-09-14T19:26:07.323Z,98383.13
2023-09-14T19:31:16.412Z,98383.13
2023-09-14T19:36:21.288Z,98378.00
2023-09-14T19:41:23.893Z,98384.59
2023-09-14T19:46:26.757Z,98384.63
2023-09-14T19:51:29.455Z,98382.34
2023-09-14T19:56:32.118Z,98385.34
2023-09-14T20:01:34.850Z,98383.88
2023-09-14T20:06:37.594Z,98381.09
2023-09-14T20:11:41.054Z,98379.16
2023-09-14T20:16:45.037Z,98376.19
2023-09-14T20:21:47.768Z,98372.28
2023-09-14T20:26:50.444Z,98374.81
2023-09-14T20:31:53.032Z,98373.66
2023-09-14T20:36:55.846Z,98384.03
2023-09-14T20:41:58.522Z,98368.34
2023-09-14T20:47:01.220Z,98368.44
2023-09-14T20:52:04.345Z,98365.47
2023-09-14T20:57:07.980Z,98358.25
2023-09-14T21:02:10.624Z,98351.53
2023-09-14T21:07:13.352Z,98353.56
2023-09-14T21:12:15.909Z,98354.28
2023-09-14T21:17:18.142Z,98358.28
2023-09-14T21:22:20.302Z,98350.88
2023-09-14T21:27:22.559Z,98344.44
2023-09-14T21:32:24.770Z,98337.69
2023-09-14T21:37:27.045Z,98339.44
2023-09-14T21:42:29.457Z,98332.91
2023-09-14T21:47:31.939Z,98328.06
2023-09-14T21:52:34.506Z,98327.94
2023-09-14T21:57:36.870Z,98321.59
2023-09-14T22:02:39.193Z,98322.31
2023-09-14T22:07:41.550Z,98323.75
2023-09-14T22:12:43.698Z,98324.69
2023-09-14T22:17:45.984Z,98318.16
2023-09-14T22:22:51.180Z,98310.72
2023-09-14T22:27:53.542Z,98313.59
2023-09-14T22:32:55.728Z,98308.22
2023-09-14T22:37:58.035Z,98314.44
2023-09-14T22:43:00.306Z,98317.97
2023-09-14T22:48:02.599Z,98306.34
2023-09-14T22:53:04.989Z,98300.84
2023-09-14T22:58:07.321Z,98302.31
2023-09-14T23:03:09.656Z,98286.28
2023-09-14T23:08:11.932Z,98291.13
2023-09-14T23:13:14.145Z,98289.31
2023-09-14T23:18:16.705Z,98284.41
2023-09-14T23:23:22.042Z,98277.94
2023-09-14T23:28:24.285Z,98277.06
2023-09-14T23:33:30.865Z,98270.63
2023-09-14T23:38:33.274Z,98267.41
2023-09-14T23:43:35.910Z,98275.66
2023-09-14T23:48:38.281Z,98269.34
2023-09-14T23:53:40.443Z,98262.34
2023-09-14T23:58:43.916Z,98261.44
